Melton Mowbray, United Kingdom
Current Conditions -  °F | °C
As of 3:50 AM on Wednesday 22 Oct 2014 (Local Time) from EGNX Reporting Station
Scattered Clouds Scattered Clouds  
Wind Chill:   Ceiling: Unl
Heat Index:   Visibility: 6mi
Dew Point:   Wind: 13mph
Humidity: 81%   Direction: 250°WSW
Pressure: 30.18"   Gusts: NA
Location:  52.76°N, 0.89°W
Report Text: EGNX 220250Z 25011KT 9999 SCT030 08/05 Q1022
Loading
Personal Weather Stations






























Interactive Weather Map
Tropical Storm Tracking
New forecast layout! Learn more

10-Day Weather Forecast

Advertisements
Track Severe Weather on mobile